Time;durP1;ratioP1;P1;durP2;ratioP2;P2;SDS_P1;SDS_P2;PMS_P1;PMS_P2;Temp;Humidity;BMP_temperature;BMP_pressure;BME280_temperature;BME280_humidity;BME280_pressure;Samples;Min_cycle;Max_cycle;Signal;HPM_P1;HPM_P2
2022/10/24 00:00:15;;;;;;;9.67;4.93;;;;;;;8.42;100.00;99954.38;1728785;80;21033;-73
2022/10/24 00:02:42;;;;;;;8.67;4.97;;;;;;;8.41;100.00;99947.28;1757845;80;21126;-75
2022/10/24 00:05:12;;;;;;;8.17;4.87;;;;;;;8.41;100.00;99938.33;1764903;81;21111;-74
2022/10/24 00:07:40;;;;;;;9.07;5.07;;;;;;;8.41;100.00;99945.07;1739781;81;20993;-74
2022/10/24 00:10:10;;;;;;;9.33;4.90;;;;;;;8.43;100.00;99935.01;1765653;81;21008;-75
2022/10/24 00:12:37;;;;;;;11.30;5.47;;;;;;;8.43;100.00;99937.22;1765790;80;21069;-76
2022/10/24 00:15:07;;;;;;;11.40;5.57;;;;;;;8.44;100.00;99934.02;1762844;80;20997;-73
2022/10/24 00:17:35;;;;;;;10.20;5.57;;;;;;;8.44;100.00;99932.16;1764132;80;21033;-75
2022/10/24 00:20:05;;;;;;;12.40;5.97;;;;;;;8.43;100.00;99937.70;1761464;80;21487;-74
2022/10/24 00:22:32;;;;;;;13.60;6.20;;;;;;;8.42;100.00;99932.82;1764097;79;21006;-75
2022/10/24 00:24:59;;;;;;;12.63;6.13;;;;;;;8.40;100.00;99934.80;1759503;80;21057;-77
2022/10/24 00:27:27;;;;;;;10.37;5.80;;;;;;;8.39;100.00;99941.19;1759559;80;21042;-75
2022/10/24 00:29:56;;;;;;;12.28;6.15;;;;;;;8.36;100.00;99937.48;1762485;81;21030;-74
2022/10/24 00:32:24;;;;;;;10.53;5.40;;;;;;;8.32;100.00;99932.05;1740473;81;21025;-74
2022/10/24 00:34:52;;;;;;;9.57;5.57;;;;;;;8.30;100.00;99927.33;1810756;77;20987;-75
2022/10/24 00:37:21;;;;;;;9.50;5.07;;;;;;;8.29;100.00;99918.92;1863949;77;21009;-74
2022/10/24 00:39:49;;;;;;;11.43;6.00;;;;;;;8.27;100.00;99921.77;1860405;77;21582;-75
2022/10/24 00:42:16;;;;;;;9.80;5.67;;;;;;;8.27;100.00;99914.17;1860006;77;21061;-75
2022/10/24 00:44:43;;;;;;;12.50;5.90;;;;;;;8.26;100.00;99920.58;1861874;77;21006;-74
2022/10/24 00:47:23;;;;;;;9.90;6.10;;;;;;;8.24;100.00;99921.25;1862657;77;21021;-75
2022/10/24 00:50:02;;;;;;;10.70;5.40;;;;;;;8.23;100.00;99917.69;1862300;77;21045;-75
2022/10/24 00:52:39;;;;;;;10.60;6.10;;;;;;;8.21;100.00;99910.27;1837210;77;21003;-74
2022/10/24 00:55:07;;;;;;;12.97;5.67;;;;;;;8.21;100.00;99907.58;1836677;77;20974;-75
2022/10/24 00:57:43;;;;;;;10.60;5.80;;;;;;;8.18;100.00;99906.06;1827180;77;21042;-74
2022/10/24 01:00:17;;;;;;;11.20;5.97;;;;;;;8.18;100.00;99909.27;1827228;77;20994;-74
2022/10/24 01:02:44;;;;;;;10.77;5.97;;;;;;;8.16;100.00;99906.73;1634420;87;21137;-75
2022/10/24 01:05:11;;;;;;;11.00;6.33;;;;;;;8.15;100.00;99906.37;1634508;87;21102;-73
2022/10/24 01:08:03;;;;;;;11.27;6.57;;;;;;;8.15;100.00;99900.14;1633618;86;21074;-74
2022/10/24 01:10:44;;;;;;;10.87;6.00;;;;;;;8.14;100.00;99910.08;1633136;87;21114;-75
2022/10/24 01:13:29;;;;;;;12.53;6.53;;;;;;;8.12;100.00;99905.84;1670165;85;21091;-74
2022/10/24 01:16:10;;;;;;;12.83;6.83;;;;;;;8.12;100.00;99903.15;1648331;85;21109;-73
2022/10/24 01:18:58;;;;;;;12.10;6.70;;;;;;;8.12;100.00;99902.64;1655216;86;21071;-75
2022/10/24 01:21:35;;;;;;;14.20;7.27;;;;;;;8.10;100.00;99903.30;1678955;84;21076;-74
2022/10/24 01:24:41;;;;;;;14.77;7.00;;;;;;;8.09;100.00;99905.67;1657034;86;21067;-74
2022/10/24 01:27:36;;;;;;;12.73;6.33;;;;;;;8.11;100.00;99908.17;1655288;86;21074;-75
2022/10/24 01:30:07;;;;;;;13.40;6.93;;;;;;;8.10;100.00;99900.61;1654257;85;21166;-73
2022/10/24 01:33:00;;;;;;;13.50;6.57;;;;;;;8.10;100.00;99902.47;1655392;86;21027;-74
2022/10/24 01:35:43;;;;;;;13.07;6.23;;;;;;;8.10;100.00;99911.89;1657508;85;21164;-76
2022/10/24 01:38:36;;;;;;;15.30;7.20;;;;;;;8.12;100.00;99905.33;1654190;86;21090;-73
2022/10/24 01:41:07;;;;;;;14.58;6.67;;;;;;;8.11;100.00;99905.00;1650624;86;21067;-75
2022/10/24 01:43:50;;;;;;;12.57;6.57;;;;;;;8.09;100.00;99904.33;1646376;86;21142;-75
2022/10/24 01:46:24;;;;;;;14.13;7.23;;;;;;;8.09;100.00;99913.75;1598689;88;21074;-74
2022/10/24 01:49:00;;;;;;;13.98;6.78;;;;;;;8.10;100.00;99915.42;1601243;88;21090;-74
2022/10/24 01:51:26;;;;;;;14.97;6.67;;;;;;;8.10;100.00;99916.77;1561363;90;21645;-74
2022/10/24 01:53:53;;;;;;;14.37;7.37;;;;;;;8.11;100.00;99913.56;1565206;90;21088;-74
2022/10/24 01:56:20;;;;;;;16.30;7.33;;;;;;;8.12;100.00;99923.34;1564630;91;21065;-74
2022/10/24 01:58:48;;;;;;;16.17;7.53;;;;;;;8.11;100.00;99923.86;1587911;85;21563;-74
2022/10/24 02:01:18;;;;;;;15.20;7.30;;;;;;;8.11;100.00;99918.95;1648426;85;21013;-73
2022/10/24 02:03:49;;;;;;;13.57;7.20;;;;;;;8.09;100.00;99917.79;1640243;87;21130;-74
2022/10/24 02:06:20;;;;;;;14.50;6.93;;;;;;;8.09;100.00;99915.09;1640172;87;21041;-74
2022/10/24 02:08:51;;;;;;;15.70;6.43;;;;;;;8.11;100.00;99921.64;1636645;87;21098;-74
2022/10/24 02:11:18;;;;;;;13.03;6.20;;;;;;;8.12;100.00;99923.34;1617642;87;21144;-75
2022/10/24 02:13:53;;;;;;;14.03;6.30;;;;;;;8.14;100.00;99922.69;1639406;87;21030;-74
2022/10/24 02:16:21;;;;;;;14.27;6.67;;;;;;;8.17;100.00;99926.41;1634146;87;21103;-74
2022/10/24 02:18:50;;;;;;;13.00;6.83;;;;;;;8.16;100.00;99926.92;1639516;87;21065;-72
2022/10/24 02:21:32;;;;;;;15.53;7.17;;;;;;;8.18;100.00;99935.69;1659776;86;21030;-72
2022/10/24 02:24:22;;;;;;;16.03;6.47;;;;;;;8.20;100.00;99936.88;1659024;86;21076;-73
2022/10/24 02:26:56;;;;;;;15.63;7.30;;;;;;;8.20;100.00;99943.61;1699419;84;21089;-74
2022/10/24 02:29:35;;;;;;;17.40;7.77;;;;;;;8.20;100.00;99941.40;1677947;84;21049;-73
2022/10/24 02:32:02;;;;;;;16.77;7.53;;;;;;;8.21;100.00;99946.63;1706257;84;21037;-75
2022/10/24 02:34:31;;;;;;;15.20;6.80;;;;;;;8.22;100.00;99947.50;1680923;84;21084;-74
2022/10/24 02:36:58;;;;;;;18.73;7.97;;;;;;;8.24;100.00;99957.61;1679059;84;21586;-74
2022/10/24 02:39:25;;;;;;;14.90;6.93;;;;;;;8.26;100.00;99960.98;1696925;84;21550;-73
2022/10/24 02:41:53;;;;;;;16.13;7.07;;;;;;;8.28;100.00;99963.85;1665191;84;21020;-74
2022/10/24 02:44:20;;;;;;;17.00;7.63;;;;;;;8.28;100.00;99963.85;1714553;82;21099;-74
2022/10/24 02:46:47;;;;;;;15.87;7.10;;;;;;;8.29;100.00;99965.55;1739136;77;20997;-74
2022/10/24 02:49:15;;;;;;;17.47;7.20;;;;;;;8.32;100.00;99967.94;1850710;77;21021;-74
2022/10/24 02:51:44;;;;;;;18.47;7.50;;;;;;;8.34;100.00;99976.70;1848073;77;21517;-75
2022/10/24 02:54:10;;;;;;;15.23;6.87;;;;;;;8.36;100.00;99984.13;1857140;77;21033;-74
2022/10/24 02:56:44;;;;;;;16.53;7.30;;;;;;;8.39;100.00;99986.16;1852468;77;21010;-73
2022/10/24 02:59:11;;;;;;;16.73;7.93;;;;;;;8.41;100.00;99982.80;1853868;77;21487;-74
2022/10/24 03:01:38;;;;;;;15.63;7.83;;;;;;;8.42;100.00;99986.71;1860639;77;21030;-74
2022/10/24 03:04:05;;;;;;;16.07;7.23;;;;;;;8.44;100.00;99989.25;1856900;77;20955;-73
2022/10/24 03:06:32;;;;;;;17.03;7.07;;;;;;;8.46;100.00;99998.86;1861454;77;21001;-74
2022/10/24 03:08:58;;;;;;;19.30;8.03;;;;;;;8.46;100.00;100000.20;1861260;77;21034;-75
2022/10/24 03:11:25;;;;;;;14.97;7.60;;;;;;;8.49;100.00;100004.45;1856863;77;20991;-74
2022/10/24 03:13:53;;;;;;;17.60;7.67;;;;;;;8.51;100.00;100011.36;1861853;77;21053;-74
2022/10/24 03:16:21;;;;;;;14.53;6.87;;;;;;;8.52;100.00;100007.67;1864499;77;21052;-74
2022/10/24 03:18:48;;;;;;;16.00;7.00;;;;;;;8.54;100.00;100013.73;1860854;77;20982;-73
2022/10/24 03:21:15;;;;;;;14.37;6.73;;;;;;;8.58;100.00;100013.44;1861320;77;20986;-73
2022/10/24 03:23:41;;;;;;;15.00;7.10;;;;;;;8.60;100.00;100023.03;1862218;77;21096;-73
2022/10/24 03:26:10;;;;;;;16.53;7.23;;;;;;;8.63;100.00;100029.98;1857696;77;21033;-75
2022/10/24 03:28:38;;;;;;;13.80;6.60;;;;;;;8.65;100.00;100035.54;1866408;77;21503;-75
2022/10/24 03:31:05;;;;;;;17.57;7.17;;;;;;;8.66;100.00;100031.85;1864456;77;21050;-74
2022/10/24 03:33:33;;;;;;;10.97;6.03;;;;;;;8.68;100.00;100031.70;1851763;77;21034;-74
2022/10/24 03:36:01;;;;;;;15.83;6.80;;;;;;;8.70;100.00;100037.26;1861418;77;21456;-75
2022/10/24 03:38:28;;;;;;;16.17;7.37;;;;;;;8.73;100.00;100040.16;1854327;77;21010;-74
2022/10/24 03:40:55;;;;;;;13.80;6.57;;;;;;;8.75;100.00;100054.31;1862716;77;21013;-74
2022/10/24 03:43:21;;;;;;;18.07;7.20;;;;;;;8.76;100.00;100055.98;1859477;77;21026;-74
2022/10/24 03:45:48;;;;;;;18.40;7.63;;;;;;;8.79;100.00;100060.23;1857837;77;21030;-74
2022/10/24 03:48:15;;;;;;;13.93;7.13;;;;;;;8.79;100.00;100052.98;1854544;77;21604;-73
2022/10/24 03:50:42;;;;;;;13.53;6.47;;;;;;;8.82;100.00;100051.33;1853569;77;21049;-74
2022/10/24 03:53:11;;;;;;;11.78;5.70;;;;;;;8.84;100.00;100051.17;1860473;77;21033;-74
2022/10/24 03:55:38;;;;;;;10.77;5.73;;;;;;;8.84;100.00;100053.35;1863437;77;21463;-75
2022/10/24 03:58:04;;;;;;;11.73;5.80;;;;;;;8.85;100.00;100055.06;1854820;77;21037;-74
2022/10/24 04:00:37;;;;;;;9.83;5.40;;;;;;;8.87;100.00;100061.61;1860271;77;21050;-73
2022/10/24 04:03:00;;;;;;;11.33;5.73;;;;;;;8.87;100.00;100065.66;1861839;77;21013;-74
2022/10/24 04:05:26;;;;;;;11.80;5.40;;;;;;;8.86;100.00;100068.03;1859837;77;21503;-73
2022/10/24 04:07:54;;;;;;;11.40;5.23;;;;;;;8.87;100.00;100064.31;1862072;77;21480;-73
2022/10/24 04:10:20;;;;;;;8.93;4.97;;;;;;;8.88;100.00;100068.20;1859628;77;21005;-73
2022/10/24 04:12:47;;;;;;;10.63;5.83;;;;;;;8.89;100.00;100059.12;1861462;77;20997;-75
2022/10/24 04:15:14;;;;;;;8.00;4.67;;;;;;;8.89;100.00;100068.55;1862577;77;21033;-74
2022/10/24 04:17:40;;;;;;;9.98;4.95;;;;;;;8.89;100.00;100066.38;1859634;77;21045;-73
2022/10/24 04:20:08;;;;;;;12.20;5.27;;;;;;;8.89;100.00;100060.47;1860304;77;21457;-74
2022/10/24 04:22:36;;;;;;;9.78;5.35;;;;;;;8.91;100.00;100064.36;1831660;77;21021;-74
2022/10/24 04:25:03;;;;;;;11.73;5.20;;;;;;;8.90;100.00;100057.25;1800218;79;21033;-74
2022/10/24 04:27:33;;;;;;;10.03;5.23;;;;;;;8.90;100.00;100051.86;1798034;79;21057;-74
2022/10/24 04:30:00;;;;;;;8.15;4.80;;;;;;;8.88;100.00;100053.37;1796106;79;21098;-75
2022/10/24 04:32:27;;;;;;;11.57;5.47;;;;;;;8.89;100.00;100055.58;1790020;80;21017;-74
2022/10/24 04:34:54;;;;;;;11.37;5.60;;;;;;;8.89;100.00;100055.07;1826725;77;20975;-75
2022/10/24 04:37:22;;;;;;;12.93;5.97;;;;;;;8.89;100.00;100052.89;1787083;80;21035;-75
2022/10/24 04:39:49;;;;;;;14.13;6.30;;;;;;;8.91;100.00;100056.27;1792647;80;21175;-74
2022/10/24 04:42:15;;;;;;;11.37;5.23;;;;;;;8.92;100.00;100056.59;1791304;80;21057;-75
2022/10/24 04:44:44;;;;;;;13.87;6.07;;;;;;;8.92;100.00;100053.89;1790879;80;21105;-73
2022/10/24 04:47:11;;;;;;;12.70;5.93;;;;;;;8.93;100.00;100056.44;1790475;80;21045;-75
2022/10/24 04:49:38;;;;;;;9.80;5.23;;;;;;;8.95;100.00;100054.09;1848360;77;21026;-73
2022/10/24 04:52:05;;;;;;;11.05;5.37;;;;;;;8.93;100.00;100048.34;1825077;77;21507;-74
2022/10/24 04:54:32;;;;;;;9.03;4.83;;;;;;;8.94;100.00;100050.53;1794466;79;21029;-73
2022/10/24 04:56:59;;;;;;;8.80;4.43;;;;;;;8.95;100.00;100054.93;1784685;78;20986;-74
2022/10/24 04:59:25;;;;;;;8.00;4.70;;;;;;;8.98;100.00;100057.80;1770717;80;21557;-74
2022/10/24 05:01:53;;;;;;;7.07;4.73;;;;;;;8.99;100.00;100060.34;1830096;78;20994;-73
2022/10/24 05:04:21;;;;;;;7.62;4.33;;;;;;;9.00;100.00;100055.30;1829208;77;21522;-74
2022/10/24 05:06:48;;;;;;;8.23;4.43;;;;;;;9.01;100.00;100051.61;1826404;77;21025;-75
2022/10/24 05:09:15;;;;;;;7.47;4.50;;;;;;;9.00;100.00;100053.11;1827146;77;20985;-74
2022/10/24 05:11:41;;;;;;;6.37;3.92;;;;;;;8.97;100.00;100045.33;1827505;77;21001;-74
2022/10/24 05:14:08;;;;;;;8.27;4.40;;;;;;;8.95;100.00;100040.61;1849975;77;21002;-74
2022/10/24 05:16:38;;;;;;;9.07;4.70;;;;;;;8.92;100.00;100037.71;1827359;77;21002;-75
2022/10/24 05:19:06;;;;;;;13.87;6.93;;;;;;;8.90;100.00;100038.38;1828175;78;21533;-78
2022/10/24 05:21:33;;;;;;;34.93;17.87;;;;;;;8.89;100.00;100032.66;1799509;78;20973;-75
2022/10/24 05:24:00;;;;;;;27.60;16.43;;;;;;;8.90;100.00;100037.03;1808432;78;21069;-73
2022/10/24 05:26:27;;;;;;;30.77;18.13;;;;;;;8.93;100.00;100040.77;1809303;78;21469;-71
2022/10/24 05:28:54;;;;;;;14.18;7.58;;;;;;;8.95;100.00;100036.05;1822882;79;21010;-73
2022/10/24 05:31:21;;;;;;;18.97;10.77;;;;;;;8.99;100.00;100040.11;1803959;79;20999;-75
2022/10/24 05:33:49;;;;;;;33.03;18.17;;;;;;;9.03;100.00;100047.37;1816658;78;21026;-74
2022/10/24 05:36:17;;;;;;;14.30;7.40;;;;;;;9.08;100.00;100047.73;1814998;78;21519;-72
2022/10/24 05:38:44;;;;;;;10.10;5.63;;;;;;;9.14;100.00;100049.81;1816178;78;20983;-70
2022/10/24 05:41:11;;;;;;;8.57;4.87;;;;;;;9.22;100.00;100051.17;1783815;79;20991;-72
2022/10/24 05:43:37;;;;;;;7.73;4.47;;;;;;;9.31;100.00;100054.27;1829932;77;21026;-72
2022/10/24 05:46:05;;;;;;;8.05;4.65;;;;;;;9.40;100.00;100056.98;1828775;77;21074;-74
2022/10/24 05:48:32;;;;;;;6.90;4.40;;;;;;;9.47;100.00;100055.31;1822551;78;21010;-73
2022/10/24 05:50:59;;;;;;;7.50;4.80;;;;;;;9.54;100.00;100046.06;1829601;77;21049;-71
2022/10/24 05:53:26;;;;;;;8.25;4.60;;;;;;;9.62;100.00;100052.34;1830499;78;21017;-71
2022/10/24 05:55:53;;;;;;;10.08;4.47;;;;;;;9.69;100.00;100053.87;1825629;76;20963;-74
2022/10/24 05:58:21;;;;;;;9.55;5.55;;;;;;;9.75;100.00;100045.62;1834287;78;21093;-71
2022/10/24 06:00:48;;;;;;;10.32;5.37;;;;;;;9.81;100.00;100035.48;1832904;76;20999;-72
2022/10/24 06:03:16;;;;;;;13.68;5.83;;;;;;;9.84;100.00;100025.71;1831598;76;21021;-76
2022/10/24 06:05:43;;;;;;;16.93;8.78;;;;;;;9.94;100.00;100016.95;1815568;78;21038;-70
2022/10/24 06:08:10;;;;;;;25.82;13.85;;;;;;;10.05;100.00;100013.91;1779942;79;21069;-72
2022/10/24 06:10:38;;;;;;;22.07;11.83;;;;;;;10.17;100.00;100006.32;1778377;79;21623;-74
2022/10/24 06:13:07;;;;;;;20.55;10.85;;;;;;;10.29;100.00;99993.80;1763873;80;21052;-73
2022/10/24 06:15:35;;;;;;;58.80;33.42;;;;;;;10.43;100.00;99983.70;1793297;78;21060;-72
2022/10/24 06:18:03;;;;;;;22.87;13.22;;;;;;;10.60;100.00;99982.63;1790385;78;21175;-71
2022/10/24 06:20:31;;;;;;;22.20;12.35;;;;;;;10.72;100.00;99975.52;1795794;78;21093;-72
2022/10/24 06:22:58;;;;;;;23.92;11.03;;;;;;;10.75;100.00;99944.09;1813350;78;20997;-74
2022/10/24 06:25:26;;;;;;;38.90;22.42;;;;;;;10.74;100.00;99913.98;1821872;77;21002;-76
2022/10/24 06:27:53;;;;;;;84.72;55.83;;;;;;;10.74;100.00;99882.38;1827098;78;21487;-71
2022/10/24 06:30:21;;;;;;;65.25;40.65;;;;;;;10.73;100.00;99856.85;1828495;77;21063;-73
2022/10/24 06:32:48;;;;;;;32.73;19.37;;;;;;;10.72;100.00;99826.79;1819831;77;21034;-74
2022/10/24 06:35:15;;;;;;;21.62;12.73;;;;;;;10.74;100.00;99806.64;1827323;78;20976;-74
2022/10/24 06:37:43;;;;;;;20.30;10.58;;;;;;;10.77;100.00;99786.53;1807566;78;21034;-71
2022/10/24 06:40:11;;;;;;;19.57;9.38;;;;;;;10.79;100.00;99747.45;1757600;79;21062;-72
2022/10/24 06:42:38;;;;;;;15.32;7.65;;;;;;;10.81;100.00;99735.95;1766838;81;21121;-72
2022/10/24 06:45:06;;;;;;;11.90;6.35;;;;;;;10.80;100.00;99723.46;1753735;81;21107;-74
2022/10/24 06:47:33;;;;;;;10.58;5.83;;;;;;;10.78;100.00;99702.52;1777399;80;21058;-73
2022/10/24 06:50:12;;;;;;;9.58;5.65;;;;;;;10.75;100.00;99684.47;1744502;81;21567;-76
2022/10/24 06:52:42;;;;;;;11.73;6.00;;;;;;;10.72;100.00;99661.31;1830460;77;21107;-75
2022/10/24 06:55:09;;;;;;;9.40;5.40;;;;;;;10.74;100.00;99653.02;1792285;79;21030;-76
2022/10/24 06:57:35;;;;;;;11.57;5.50;;;;;;;10.70;100.00;99632.27;1818294;78;20995;-77
2022/10/24 07:00:04;;;;;;;10.75;4.90;;;;;;;10.66;100.00;99620.14;1796512;78;21516;-76
2022/10/24 07:02:32;;;;;;;12.40;5.70;;;;;;;10.64;100.00;99601.88;1796973;78;20990;-80
2022/10/24 07:04:59;;;;;;;8.83;5.40;;;;;;;10.64;100.00;99593.77;1773341;79;21336;-76
2022/10/24 07:07:28;;;;;;;9.88;5.25;;;;;;;10.60;100.00;99579.78;1758413;80;20990;-81
2022/10/24 07:09:56;;;;;;;8.65;5.03;;;;;;;10.62;100.00;99558.83;1757070;81;21090;-79
2022/10/24 07:12:23;;;;;;;10.05;4.87;;;;;;;10.75;100.00;99550.61;1756264;81;21038;-79
2022/10/24 07:14:51;;;;;;;9.25;5.12;;;;;;;11.06;100.00;99554.48;1816925;78;21018;-79
2022/10/24 07:17:19;;;;;;;10.50;6.00;;;;;;;11.45;100.00;99561.99;1817972;77;21029;-76
2022/10/24 07:19:52;;;;;;;8.87;5.23;;;;;;;11.78;100.00;99547.50;1813170;78;21023;-79
2022/10/24 07:22:19;;;;;;;9.90;5.55;;;;;;;12.07;100.00;99526.78;1816662;78;20983;-78
2022/10/24 07:24:51;;;;;;;6.87;4.62;;;;;;;12.26;100.00;99500.91;1814505;78;20997;-77
2022/10/24 07:27:18;;;;;;;10.05;4.97;;;;;;;12.34;100.00;99470.93;1817336;78;20986;-76
2022/10/24 07:29:46;;;;;;;7.47;4.37;;;;;;;12.44;100.00;99452.45;1809168;78;21495;-74
2022/10/24 07:32:13;;;;;;;16.10;9.10;;;;;;;12.58;100.00;99430.34;1814088;78;21058;-76
2022/10/24 07:34:40;;;;;;;9.23;5.30;;;;;;;12.62;100.00;99418.05;1816371;78;21468;-79
2022/10/24 07:37:07;;;;;;;9.45;5.17;;;;;;;12.54;100.00;99412.80;1819825;78;21030;-80
2022/10/24 07:39:34;;;;;;;9.18;5.10;;;;;;;12.37;100.00;99393.28;1819646;78;21003;-83
2022/10/24 07:42:01;;;;;;;8.13;5.10;;;;;;;12.20;100.00;99390.05;1796317;78;21480;-78
2022/10/24 07:44:29;;;;;;;6.53;4.95;;;;;;;12.07;100.00;99388.06;1756930;80;21543;-79
2022/10/24 07:46:56;;;;;;;9.28;4.70;;;;;;;11.98;100.00;99391.95;1773347;80;20986;-79
2022/10/24 07:49:24;;;;;;;11.40;6.00;;;;;;;11.88;100.00;99394.98;1727102;81;21454;-79
2022/10/24 07:51:50;;;;;;;11.22;6.22;;;;;;;11.81;100.00;99391.38;1808317;78;20999;-79
2022/10/24 07:54:17;;;;;;;8.65;5.08;;;;;;;11.74;100.00;99404.03;1823441;78;21200;-77
2022/10/24 07:56:44;;;;;;;11.90;6.10;;;;;;;11.67;100.00;99420.20;1830885;77;21493;-79
2022/10/24 07:59:11;;;;;;;10.55;5.20;;;;;;;11.64;100.00;99428.70;1826678;77;20999;-80
2022/10/24 08:01:38;;;;;;;10.25;5.10;;;;;;;11.63;100.00;99443.79;1833854;78;21007;-81
2022/10/24 08:04:05;;;;;;;20.72;10.18;;;;;;;11.62;100.00;99452.44;1823474;77;21481;-84
2022/10/24 08:06:31;;;;;;;78.62;44.40;;;;;;;11.68;100.00;99459.78;1828879;77;21406;-81
2022/10/24 08:09:02;;;;;;;18.95;11.80;;;;;;;11.75;100.00;99468.81;1826338;77;21050;-85
2022/10/24 08:11:31;;;;;;;13.55;7.58;;;;;;;11.83;100.00;99471.93;1833226;78;21052;-80
2022/10/24 08:13:58;;;;;;;12.13;5.62;;;;;;;11.93;100.00;99487.88;1802926;78;21050;-76
2022/10/24 08:16:25;;;;;;;19.12;9.38;;;;;;;11.94;100.00;99494.98;1794227;78;21006;-77
2022/10/24 08:18:53;;;;;;;18.80;8.78;;;;;;;11.93;100.00;99514.47;1774304;79;21627;-75
2022/10/24 08:21:20;;;;;;;9.78;5.37;;;;;;;11.95;100.00;99516.47;1826545;78;21057;-76
2022/10/24 08:23:50;;;;;;;5.83;4.03;;;;;;;12.09;100.00;99529.64;1831538;78;20990;-75
2022/10/24 08:26:19;;;;;;;8.13;4.65;;;;;;;12.30;100.00;99532.00;1824873;78;21500;-77
2022/10/24 08:28:46;;;;;;;8.43;4.37;;;;;;;12.58;100.00;99539.34;1819749;79;20983;-75
2022/10/24 08:31:24;;;;;;;6.62;4.37;;;;;;;12.75;100.00;99545.30;1829941;78;21048;-74
2022/10/24 08:33:58;;;;;;;6.72;4.60;;;;;;;12.86;100.00;99557.81;1795274;78;21041;-74
2022/10/24 08:36:30;;;;;;;9.03;4.67;;;;;;;12.91;100.00;99573.52;1745363;81;20991;-75
2022/10/24 08:38:57;;;;;;;7.75;4.62;;;;;;;13.00;100.00;99587.77;1821398;78;21038;-75
2022/10/24 08:41:42;;;;;;;8.78;4.87;;;;;;;13.11;100.00;99594.83;1814786;78;22354;-74
2022/10/24 08:44:42;;;;;;;10.43;4.87;;;;;;;13.21;100.00;99616.70;1722855;83;21074;-74
2022/10/24 08:47:43;;;;;;;7.92;4.70;;;;;;;13.19;100.00;99633.71;1702229;82;21547;-74
2022/10/24 08:50:33;;;;;;;6.83;4.30;;;;;;;13.15;100.00;99648.73;1688377;84;21148;-73
2022/10/24 08:53:15;;;;;;;7.87;4.47;;;;;;;13.08;100.00;99663.10;1660793;85;20995;-76
2022/10/24 08:55:53;;;;;;;8.35;4.75;;;;;;;13.09;100.00;99680.22;1659279;85;21101;-77
2022/10/24 08:58:28;;;;;;;8.80;4.55;;;;;;;13.02;100.00;99699.68;1661923;84;21481;-75
2022/10/24 09:01:00;;;;;;;12.70;4.90;;;;;;;12.92;100.00;99706.78;1632944;86;21106;-80
2022/10/24 09:03:38;;;;;;;8.20;4.65;;;;;;;12.77;100.00;99723.66;1642630;86;21046;-79
2022/10/24 09:06:10;;;;;;;6.45;4.85;;;;;;;12.66;100.00;99731.77;1645336;86;21090;-77
2022/10/24 09:09:02;;;;;;;13.38;5.50;;;;;;;12.55;100.00;99727.69;1553667;89;21622;-79
2022/10/24 09:11:53;;;;;;;17.62;9.43;;;;;;;12.47;100.00;99722.40;1564784;89;21084;-79
2022/10/24 09:14:30;;;;;;;20.48;10.15;;;;;;;12.47;100.00;99721.05;1592070;89;21117;-79
2022/10/24 09:17:21;;;;;;;19.98;10.53;;;;;;;12.74;100.00;99711.31;1588853;89;21133;-75
2022/10/24 09:19:56;;;;;;;5.22;3.67;;;;;;;13.16;100.00;99702.00;1588488;88;21095;-76
2022/10/24 09:22:26;;;;;;;27.27;14.35;;;;;;;13.46;100.00;99708.94;1576836;89;21559;-78
2022/10/24 09:25:03;;;;;;;21.27;12.95;;;;;;;13.60;100.00;99709.05;1591301;88;21183;-77
2022/10/24 09:27:34;;;;;;;4.55;3.85;;;;;;;13.70;100.00;99714.94;1589441;88;21080;-73
2022/10/24 09:30:01;;;;;;;6.42;3.80;;;;;;;13.81;100.00;99725.27;1591366;90;21057;-75
2022/10/24 09:32:35;;;;;;;5.00;3.47;;;;;;;13.98;100.00;99735.27;1587873;89;21369;-75
2022/10/24 09:35:09;;;;;;;5.65;3.83;;;;;;;14.18;100.00;99739.48;1585057;90;21101;-76
2022/10/24 09:37:50;;;;;;;5.95;3.35;;;;;;;14.49;100.00;99742.73;1558188;91;21148;-76
2022/10/24 09:40:32;;;;;;;5.25;3.42;;;;;;;14.77;100.00;99747.55;1528758;90;21127;-76
2022/10/24 09:43:21;;;;;;;3.45;2.90;;;;;;;15.01;100.00;99758.90;1580272;89;21054;-82
2022/10/24 09:46:19;;;;;;;5.30;3.10;;;;;;;15.32;100.00;99772.47;1534921;90;21630;-76
2022/10/24 09:48:58;;;;;;;5.22;3.20;;;;;;;15.49;100.00;99798.25;1519765;93;21106;-74
2022/10/24 09:51:34;;;;;;;6.12;3.45;;;;;;;15.44;100.00;99829.88;1522899;92;21085;-76
2022/10/24 09:54:23;;;;;;;4.40;3.33;;;;;;;15.24;100.00;99843.47;1525213;92;21064;-78
2022/10/24 09:56:59;;;;;;;4.33;2.80;;;;;;;15.03;100.00;99855.36;1521620;92;21082;-74
2022/10/24 09:59:51;;;;;;;4.80;2.77;;;;;;;14.76;100.00;99877.03;1522114;91;21091;-76
2022/10/24 10:02:26;;;;;;;3.98;3.00;;;;;;;14.50;100.00;99885.86;1489041;95;21157;-77
2022/10/24 10:05:07;;;;;;;4.12;3.02;;;;;;;14.38;100.00;99882.88;1495128;94;21182;-77
2022/10/24 10:07:39;;;;;;;4.58;2.60;;;;;;;14.50;100.00;99872.25;1555954;91;21092;-77
2022/10/24 10:10:31;;;;;;;2.90;2.47;;;;;;;14.70;100.00;99877.33;1548593;92;21053;-74
2022/10/24 10:13:21;;;;;;;4.00;2.58;;;;;;;14.95;100.00;99874.91;1552571;91;21116;-75
2022/10/24 10:15:50;;;;;;;12.95;5.87;;;;;;;15.31;100.00;99868.84;1534302;93;21097;-75
2022/10/24 10:18:25;;;;;;;7.37;3.80;;;;;;;15.67;100.00;99882.61;1521613;92;21077;-73
2022/10/24 10:21:18;;;;;;;5.58;3.70;;;;;;;15.92;100.00;99882.89;1543359;91;21137;-75
2022/10/24 10:23:48;;;;;;;5.85;3.08;;;;;;;16.14;100.00;99914.33;1557239;92;21090;-74
2022/10/24 10:26:23;;;;;;;3.55;2.42;;;;;;;16.33;100.00;99930.91;1555652;90;21098;-78
2022/10/24 10:29:19;;;;;;;3.83;3.15;;;;;;;16.46;100.00;99956.80;1507714;93;21133;-73
2022/10/24 10:32:00;;;;;;;16.50;9.28;;;;;;;16.56;100.00;99969.20;1480752;94;21066;-72
2022/10/24 10:34:39;;;;;;;34.13;22.95;;;;;;;16.74;100.00;99963.08;1508565;93;21018;-80
2022/10/24 10:37:21;;;;;;;33.88;18.90;;;;;;;17.00;100.00;99962.20;1506247;94;21589;-77
2022/10/24 10:40:09;;;;;;;8.03;4.45;;;;;;;17.33;100.00;99966.14;1498321;93;21146;-78
2022/10/24 10:42:54;;;;;;;5.00;2.77;;;;;;;17.65;100.00;99971.16;1540869;91;21140;-73
2022/10/24 10:45:46;;;;;;;4.05;2.77;;;;;;;17.75;100.00;99987.60;1545277;90;21071;-72
2022/10/24 10:48:28;;;;;;;4.20;2.42;;;;;;;17.75;100.00;100006.74;1556805;89;21642;-76
2022/10/24 10:51:11;;;;;;;3.75;2.67;;;;;;;17.44;100.00;100013.81;1558081;92;21072;-74
2022/10/24 10:54:01;;;;;;;2.65;2.45;;;;;;;16.96;100.00;100027.84;1547082;90;21085;-74
2022/10/24 10:56:40;;;;;;;3.85;2.52;;;;;;;16.49;100.00;100036.89;1583473;89;21093;-75
2022/10/24 11:00:06;;;;;;;2.67;2.47;;;;;;;16.08;100.00;100032.46;1607541;86;21024;-76
2022/10/24 11:03:02;;;;;;;5.78;2.55;;;;;;;15.78;100.00;100027.89;1613388;87;21098;-74
2022/10/24 11:05:59;;;;;;;4.00;2.45;;;;;;;15.50;100.00;100017.91;1621708;86;21110;-79
2022/10/24 11:09:13;;;;;;;2.95;2.20;;;;;;;15.28;100.00;100024.01;1590900;87;21104;-73
2022/10/24 11:12:04;;;;;;;5.20;2.60;;;;;;;15.19;100.00;100015.16;1635413;86;21062;-76
2022/10/24 11:14:47;;;;;;;3.22;2.30;;;;;;;15.15;100.00;100015.75;1666675;84;21149;-76
2022/10/24 11:17:36;;;;;;;3.00;2.47;;;;;;;15.16;100.00;100016.09;1664814;85;21106;-75
2022/10/24 11:20:26;;;;;;;4.50;2.58;;;;;;;15.25;100.00;100014.87;1642313;85;21041;-75
2022/10/24 11:23:10;;;;;;;2.65;2.30;;;;;;;15.34;100.00;100011.45;1636842;87;21097;-75
2022/10/24 11:25:55;;;;;;;2.83;2.55;;;;;;;15.26;100.00;100022.52;1655253;86;21178;-76
2022/10/24 11:28:51;;;;;;;5.87;2.92;;;;;;;15.15;100.00;100022.03;1667636;86;21108;-74
2022/10/24 11:31:22;;;;;;;3.15;2.47;;;;;;;15.33;100.00;100011.13;1668642;85;21214;-72
2022/10/24 11:34:15;;;;;;;6.28;2.60;;;;;;;15.67;100.00;100014.30;1668155;85;21523;-75
2022/10/24 11:37:07;;;;;;;4.67;2.70;;;;;;;15.92;100.00;100014.60;1619676;87;21141;-73
2022/10/24 11:40:07;;;;;;;4.87;2.60;;;;;;;16.14;100.00;100025.33;1620179;88;21086;-76
2022/10/24 11:42:51;;;;;;;3.27;2.70;;;;;;;16.38;100.00;100031.22;1619253;88;21077;-74
2022/10/24 11:45:20;;;;;;;2.50;2.30;;;;;;;16.51;100.00;100036.69;1612156;88;21073;-73
2022/10/24 11:48:34;;;;;;;2.67;2.45;;;;;;;16.53;100.00;100053.69;1612362;87;21190;-74